createdAt,value
2019-02-26T00:00:17.136Z,48.5
2019-02-26T00:03:19.439Z,45.3
2019-02-26T00:06:16.139Z,45.7
2019-02-26T00:09:20.515Z,46.1
2019-02-26T00:12:15.817Z,45.6
2019-02-26T00:15:15.829Z,46.2
2019-02-26T00:18:16.805Z,46.2
2019-02-26T00:21:15.272Z,46.0
2019-02-26T00:24:16.806Z,48.3
2019-02-26T00:27:15.484Z,46.8
2019-02-26T00:30:16.655Z,47.3
2019-02-26T00:33:16.972Z,47.2
2019-02-26T00:36:15.468Z,47.1
2019-02-26T00:39:15.622Z,48.3
2019-02-26T00:42:19.547Z,48.7
2019-02-26T00:45:15.678Z,48.6
2019-02-26T00:48:15.132Z,50.7
2019-02-26T00:51:16.063Z,50.2
2019-02-26T00:54:15.145Z,48.6
2019-02-26T00:57:15.211Z,47.2
2019-02-26T01:00:15.586Z,48.3
2019-02-26T01:03:15.630Z,47.9
2019-02-26T01:06:15.093Z,47.9
2019-02-26T01:09:15.823Z,47.1
2019-02-26T01:12:16.591Z,47.5
2019-02-26T01:15:15.735Z,46.9
2019-02-26T01:18:15.169Z,47.2
2019-02-26T01:21:15.540Z,47.2
2019-02-26T01:24:14.884Z,47.1
2019-02-26T01:27:15.847Z,47.5
2019-02-26T01:30:18.134Z,48.0
2019-02-26T01:33:15.505Z,46.5
2019-02-26T01:36:16.312Z,48.8
2019-02-26T01:39:16.241Z,47.9
2019-02-26T01:42:17.712Z,48.7
2019-02-26T01:45:15.083Z,48.8
2019-02-26T01:48:16.681Z,48.9
2019-02-26T01:51:16.816Z,49.0
2019-02-26T01:54:16.786Z,49.5
2019-02-26T01:57:17.322Z,49.2
2019-02-26T02:00:15.167Z,50.3
2019-02-26T02:03:15.747Z,49.3
2019-02-26T02:06:15.914Z,49.9
2019-02-26T02:09:16.349Z,51.4
2019-02-26T02:12:15.588Z,50.2
2019-02-26T02:15:18.259Z,49.2
2019-02-26T02:18:15.199Z,50.1
2019-02-26T02:21:15.429Z,49.7
2019-02-26T02:24:17.568Z,49.7
2019-02-26T02:27:19.391Z,49.0
2019-02-26T02:30:22.607Z,50.8
2019-02-26T02:33:17.300Z,50.1
2019-02-26T02:36:17.120Z,50.0
2019-02-26T02:39:15.653Z,51.2
2019-02-26T02:42:17.121Z,50.0
2019-02-26T02:45:20.142Z,49.7
2019-02-26T02:48:15.179Z,49.5
2019-02-26T02:51:15.735Z,49.6
2019-02-26T02:54:16.337Z,49.1
2019-02-26T02:57:15.735Z,49.4
2019-02-26T03:00:15.592Z,49.1
2019-02-26T03:03:15.793Z,50.1
2019-02-26T03:06:15.372Z,50.5
2019-02-26T03:09:17.149Z,50.5
2019-02-26T03:12:15.655Z,50.4
2019-02-26T03:15:15.281Z,51.3
2019-02-26T03:18:16.826Z,50.8
2019-02-26T03:21:16.665Z,49.5
2019-02-26T03:24:15.541Z,49.2
2019-02-26T03:27:15.141Z,49.1
2019-02-26T03:30:20.192Z,49.5
2019-02-26T03:33:15.358Z,49.3
2019-02-26T03:36:16.629Z,50.2
2019-02-26T03:39:15.467Z,49.5
2019-02-26T03:42:16.675Z,50.9
2019-02-26T03:45:15.108Z,49.3
2019-02-26T03:48:19.158Z,49.6
2019-02-26T03:51:17.889Z,50.1
2019-02-26T03:54:14.877Z,51.2
2019-02-26T03:57:16.845Z,51.7
2019-02-26T04:00:16.958Z,51.2
2019-02-26T04:03:17.290Z,52.2
2019-02-26T04:06:15.749Z,51.0
2019-02-26T04:09:17.207Z,51.2
2019-02-26T04:12:18.303Z,51.9
2019-02-26T04:15:15.164Z,53.1
2019-02-26T04:18:15.529Z,52.9
2019-02-26T04:21:18.135Z,52.1
2019-02-26T04:24:14.935Z,52.8
2019-02-26T04:27:15.158Z,52.4
2019-02-26T04:30:16.265Z,52.2
2019-02-26T04:33:15.753Z,54.1
2019-02-26T04:36:16.927Z,52.9
2019-02-26T04:39:16.902Z,52.5
2019-02-26T04:42:18.181Z,51.5
2019-02-26T04:45:15.139Z,52.4
2019-02-26T04:48:19.395Z,51.7
2019-02-26T04:51:15.873Z,53.9
2019-02-26T04:54:21.087Z,53.6
2019-02-26T04:57:15.342Z,52.9
2019-02-26T05:00:15.910Z,52.2
2019-02-26T05:03:18.099Z,53.5
2019-02-26T05:06:15.863Z,54.8
2019-02-26T05:09:15.873Z,53.8
2019-02-26T05:12:15.903Z,54.3
2019-02-26T05:15:19.807Z,54.0
2019-02-26T05:18:14.982Z,54.8
2019-02-26T05:21:15.859Z,55.2
2019-02-26T05:24:17.881Z,54.4
2019-02-26T05:27:18.576Z,54.1
2019-02-26T05:30:17.230Z,55.4
2019-02-26T05:33:15.199Z,56.6
2019-02-26T05:36:17.220Z,55.0
2019-02-26T05:39:21.719Z,54.4
2019-02-26T05:42:15.138Z,54.5
2019-02-26T05:45:15.562Z,54.2
2019-02-26T05:48:18.163Z,54.0
2019-02-26T05:51:15.563Z,54.2
2019-02-26T05:54:17.977Z,53.6
2019-02-26T05:57:26.088Z,55.0
2019-02-26T06:00:20.581Z,53.8
2019-02-26T06:03:18.270Z,54.0
2019-02-26T06:06:15.013Z,53.9
2019-02-26T06:09:15.135Z,53.9
2019-02-26T06:12:15.760Z,53.4
2019-02-26T06:15:14.916Z,52.1
2019-02-26T06:18:15.480Z,52.9
2019-02-26T06:21:16.512Z,52.1
2019-02-26T06:24:20.249Z,51.8
2019-02-26T06:27:16.596Z,50.9
2019-02-26T06:30:15.621Z,51.2
2019-02-26T06:33:16.423Z,51.9
2019-02-26T06:36:15.547Z,52.1
2019-02-26T06:39:16.134Z,51.7
2019-02-26T06:42:15.576Z,51.6
2019-02-26T06:45:16.662Z,50.4
2019-02-26T06:48:19.347Z,50.1
2019-02-26T06:51:15.685Z,49.7
2019-02-26T06:54:15.467Z,49.8
2019-02-26T06:57:15.359Z,48.8
2019-02-26T07:00:16.771Z,48.4
2019-02-26T07:03:15.216Z,48.0
2019-02-26T07:06:18.450Z,47.5
2019-02-26T07:09:17.808Z,46.9
2019-02-26T07:12:16.917Z,46.6
2019-02-26T07:15:15.557Z,46.0
2019-02-26T07:18:16.984Z,45.9
2019-02-26T07:21:15.039Z,45.3
2019-02-26T07:24:17.541Z,45.3
2019-02-26T07:27:15.173Z,45.0
2019-02-26T07:30:15.061Z,44.7
2019-02-26T07:33:15.807Z,44.6
2019-02-26T07:36:16.182Z,44.3
2019-02-26T07:39:16.103Z,44.0
2019-02-26T07:42:18.350Z,43.9
2019-02-26T07:45:19.604Z,43.6
2019-02-26T07:48:18.648Z,43.7
2019-02-26T07:51:15.467Z,43.7
2019-02-26T07:54:15.455Z,43.5
2019-02-26T07:57:17.944Z,42.3
2019-02-26T08:00:15.506Z,41.4
2019-02-26T08:03:17.394Z,41.0
2019-02-26T08:06:15.845Z,40.9
2019-02-26T08:09:17.026Z,40.9
2019-02-26T08:12:15.567Z,40.9
2019-02-26T08:15:15.895Z,40.3
2019-02-26T08:18:15.274Z,39.7
2019-02-26T08:21:17.667Z,38.6
2019-02-26T08:24:16.998Z,37.3
2019-02-26T08:27:15.777Z,36.2
2019-02-26T08:30:17.753Z,34.8
2019-02-26T08:33:15.441Z,32.3
2019-02-26T08:36:15.153Z,31.2
2019-02-26T08:39:15.900Z,30.1
2019-02-26T08:42:15.573Z,29.3
2019-02-26T08:45:17.217Z,27.4
2019-02-26T08:48:17.337Z,26.6
2019-02-26T08:51:16.318Z,24.6
2019-02-26T08:54:20.979Z,24.4
2019-02-26T08:57:14.933Z,24.3
2019-02-26T09:00:15.670Z,22.8
2019-02-26T09:03:16.043Z,22.8
2019-02-26T09:06:16.265Z,21.8
2019-02-26T09:09:15.931Z,21.3
2019-02-26T09:12:17.400Z,20.7
2019-02-26T09:15:15.848Z,21.1
2019-02-26T09:18:20.287Z,20.0
2019-02-26T09:21:18.140Z,20.7
2019-02-26T09:24:15.969Z,18.4
2019-02-26T09:27:15.737Z,19.8
2019-02-26T09:30:16.146Z,19.0
2019-02-26T09:33:15.108Z,19.9
2019-02-26T09:36:18.125Z,18.6
2019-02-26T09:39:15.517Z,18.5
2019-02-26T09:42:15.535Z,18.0
2019-02-26T09:45:17.367Z,17.5
2019-02-26T09:48:16.990Z,18.1
2019-02-26T09:51:16.680Z,17.7
2019-02-26T09:54:17.391Z,14.6
2019-02-26T09:57:18.041Z,16.7
2019-02-26T10:00:16.763Z,16.3
2019-02-26T10:03:15.520Z,16.1
2019-02-26T10:06:16.012Z,15.5
2019-02-26T10:09:16.198Z,16.2
2019-02-26T10:12:15.857Z,14.4
2019-02-26T10:15:15.601Z,14.7
2019-02-26T10:18:15.538Z,16.0
2019-02-26T10:21:18.329Z,15.2
2019-02-26T10:24:15.364Z,15.2
2019-02-26T10:27:16.368Z,15.7
2019-02-26T10:30:16.249Z,15.2
2019-02-26T10:33:18.206Z,16.0
2019-02-26T10:36:16.512Z,16.0
2019-02-26T10:39:18.076Z,15.9
2019-02-26T10:42:18.099Z,15.5
2019-02-26T10:45:15.017Z,15.3
2019-02-26T10:48:16.831Z,15.0
2019-02-26T10:51:16.811Z,15.3
2019-02-26T10:54:17.953Z,15.4
2019-02-26T10:57:15.796Z,15.2
2019-02-26T11:00:15.295Z,14.3
2019-02-26T11:03:17.207Z,14.5
2019-02-26T11:06:17.384Z,15.3
2019-02-26T11:09:18.206Z,15.3
2019-02-26T11:12:15.509Z,14.7
2019-02-26T11:15:15.484Z,14.5
2019-02-26T11:18:17.965Z,14.2
2019-02-26T11:21:15.198Z,15.0
2019-02-26T11:24:14.973Z,15.1
2019-02-26T11:27:17.202Z,16.0
2019-02-26T11:30:15.549Z,16.6
2019-02-26T11:33:15.951Z,16.0
2019-02-26T11:36:15.852Z,16.0
2019-02-26T11:39:16.688Z,16.4
2019-02-26T11:42:16.439Z,16.5
2019-02-26T11:45:17.518Z,16.5
2019-02-26T11:48:17.432Z,16.2
2019-02-26T11:51:17.689Z,16.8
2019-02-26T11:54:17.735Z,16.9
2019-02-26T11:57:15.821Z,17.0
2019-02-26T12:00:24.391Z,17.8
2019-02-26T12:03:22.784Z,18.3
2019-02-26T12:06:15.242Z,18.6
2019-02-26T12:09:16.216Z,19.7
2019-02-26T12:12:14.877Z,20.1
2019-02-26T12:15:15.448Z,20.7
2019-02-26T12:18:17.891Z,21.1
2019-02-26T12:21:15.303Z,21.2
2019-02-26T12:24:15.714Z,21.5
2019-02-26T12:27:18.211Z,21.8
2019-02-26T12:30:16.282Z,22.1
2019-02-26T12:33:15.656Z,22.1
2019-02-26T12:36:14.937Z,21.9
2019-02-26T12:39:16.199Z,22.1
2019-02-26T12:42:15.950Z,22.6
2019-02-26T12:45:15.625Z,22.3
2019-02-26T12:48:19.146Z,22.6
2019-02-26T12:51:15.519Z,22.7
2019-02-26T12:54:15.721Z,22.7
2019-02-26T12:57:16.937Z,22.9
2019-02-26T13:00:16.591Z,22.6
2019-02-26T13:03:19.452Z,22.6
2019-02-26T13:06:16.593Z,22.9
2019-02-26T13:09:15.837Z,22.8
2019-02-26T13:12:18.409Z,23.0
2019-02-26T13:15:19.069Z,23.2
2019-02-26T13:18:15.213Z,23.3
2019-02-26T13:21:17.156Z,23.0
2019-02-26T13:24:17.785Z,23.2
2019-02-26T13:27:15.750Z,22.6
2019-02-26T13:30:15.767Z,22.7
2019-02-26T13:33:17.819Z,22.6
2019-02-26T13:36:16.364Z,22.6
2019-02-26T13:39:21.932Z,22.5
2019-02-26T13:42:19.150Z,22.5
2019-02-26T13:45:14.989Z,22.3
2019-02-26T13:48:15.699Z,22.6
2019-02-26T13:51:15.329Z,22.5
2019-02-26T13:54:15.148Z,22.4
2019-02-26T13:57:15.986Z,22.6
2019-02-26T14:00:15.700Z,22.7
2019-02-26T14:03:14.893Z,22.5
2019-02-26T14:06:15.441Z,22.6
2019-02-26T14:09:15.342Z,23.1
2019-02-26T14:12:15.363Z,23.0
2019-02-26T14:15:15.100Z,22.8
2019-02-26T14:18:15.059Z,22.6
2019-02-26T14:21:14.961Z,22.5
2019-02-26T14:24:15.576Z,22.7
2019-02-26T14:27:15.201Z,22.8
2019-02-26T14:30:15.940Z,22.8
2019-02-26T14:33:15.990Z,22.8
2019-02-26T14:36:15.712Z,23.0
2019-02-26T14:39:15.489Z,23.2
2019-02-26T14:42:15.393Z,23.0
2019-02-26T14:45:15.126Z,23.1
2019-02-26T14:48:15.804Z,23.2
2019-02-26T14:51:15.464Z,23.2
2019-02-26T14:54:15.336Z,23.2
2019-02-26T14:57:15.327Z,23.3
2019-02-26T15:00:15.116Z,23.3
2019-02-26T15:03:15.766Z,23.5
2019-02-26T15:06:15.682Z,23.5
2019-02-26T15:09:15.509Z,23.7
2019-02-26T15:12:15.436Z,23.7
2019-02-26T15:15:15.208Z,23.8
2019-02-26T15:18:16.039Z,24.0
2019-02-26T15:21:15.045Z,24.5
2019-02-26T15:24:15.677Z,24.4
2019-02-26T15:27:15.354Z,24.4
2019-02-26T15:30:15.811Z,24.5
2019-02-26T15:33:15.490Z,24.3
2019-02-26T15:36:15.094Z,24.5
2019-02-26T15:39:15.861Z,24.8
2019-02-26T15:42:15.887Z,24.8
2019-02-26T15:45:15.734Z,25.3
2019-02-26T15:48:15.162Z,24.9
2019-02-26T15:51:19.873Z,25.0
2019-02-26T15:54:15.452Z,25.3
2019-02-26T15:57:15.258Z,25.5
2019-02-26T16:00:15.352Z,25.4
2019-02-26T16:03:15.485Z,25.7
2019-02-26T16:06:15.589Z,25.6
2019-02-26T16:09:15.485Z,25.7
2019-02-26T16:12:15.324Z,25.7
2019-02-26T16:15:14.940Z,25.9
2019-02-26T16:18:15.498Z,26.1
2019-02-26T16:21:18.475Z,26.2
2019-02-26T16:24:15.095Z,26.0
2019-02-26T16:27:15.743Z,26.4
2019-02-26T16:30:15.225Z,26.6
2019-02-26T16:33:15.407Z,26.4
2019-02-26T16:36:15.061Z,26.6
2019-02-26T16:39:15.097Z,26.7
2019-02-26T16:42:15.254Z,26.8
2019-02-26T16:45:15.813Z,26.9
2019-02-26T16:48:16.313Z,27.1
2019-02-26T16:51:16.641Z,27.2
2019-02-26T16:54:15.070Z,27.3
2019-02-26T16:57:15.665Z,27.6
2019-02-26T17:00:16.331Z,27.6
2019-02-26T17:03:15.154Z,28.2
2019-02-26T17:06:15.208Z,28.8
2019-02-26T17:09:15.189Z,29.2
2019-02-26T17:12:15.854Z,29.5
2019-02-26T17:15:15.208Z,29.4
2019-02-26T17:18:16.263Z,29.8
2019-02-26T17:21:15.121Z,30.2
2019-02-26T17:24:15.515Z,29.7
2019-02-26T17:27:15.139Z,30.7
2019-02-26T17:30:15.772Z,30.4
2019-02-26T17:33:15.222Z,30.8
2019-02-26T17:36:15.920Z,30.7
2019-02-26T17:39:15.527Z,30.7
2019-02-26T17:42:15.592Z,31.1
2019-02-26T17:45:15.133Z,32.1
2019-02-26T17:48:15.830Z,32.0
2019-02-26T17:51:18.794Z,33.7
2019-02-26T17:54:15.269Z,33.8
2019-02-26T17:57:15.893Z,33.1
2019-02-26T18:00:15.694Z,33.7
2019-02-26T18:03:15.793Z,34.1
2019-02-26T18:06:15.825Z,34.9
2019-02-26T18:09:15.558Z,34.5
2019-02-26T18:12:15.242Z,34.4
2019-02-26T18:15:17.647Z,34.9
2019-02-26T18:18:15.154Z,34.6
2019-02-26T18:21:15.575Z,36.3
2019-02-26T18:24:16.704Z,35.4
2019-02-26T18:27:15.450Z,35.2
2019-02-26T18:30:15.567Z,35.3
2019-02-26T18:33:15.106Z,36.7
2019-02-26T18:36:15.765Z,36.4
2019-02-26T18:39:15.487Z,37.7
2019-02-26T18:42:15.838Z,37.9
2019-02-26T18:45:15.433Z,36.6
2019-02-26T18:48:15.777Z,37.8
2019-02-26T18:51:15.271Z,36.3
2019-02-26T18:54:17.711Z,35.5
2019-02-26T18:57:15.837Z,35.7
2019-02-26T19:00:15.448Z,36.9
2019-02-26T19:03:15.274Z,35.9
2019-02-26T19:06:15.785Z,36.6
2019-02-26T19:09:15.661Z,36.4
2019-02-26T19:12:15.454Z,36.9
2019-02-26T19:15:15.625Z,37.0
2019-02-26T19:18:15.474Z,38.3
2019-02-26T19:21:15.038Z,39.4
2019-02-26T19:24:15.546Z,37.4
2019-02-26T19:27:16.827Z,38.5
2019-02-26T19:30:15.818Z,38.3
2019-02-26T19:33:15.599Z,39.1
2019-02-26T19:36:15.402Z,38.4
2019-02-26T19:39:15.042Z,38.6
2019-02-26T19:42:17.376Z,39.5
2019-02-26T19:45:14.996Z,38.3
2019-02-26T19:48:15.746Z,38.5
2019-02-26T19:51:15.781Z,38.9
2019-02-26T19:54:15.456Z,38.6
2019-02-26T19:57:15.068Z,39.0
2019-02-26T20:00:19.648Z,38.4
2019-02-26T20:03:15.442Z,38.1
2019-02-26T20:06:15.415Z,38.1
2019-02-26T20:09:16.603Z,38.0
2019-02-26T20:12:16.406Z,38.0
2019-02-26T20:15:14.978Z,38.0
2019-02-26T20:18:20.695Z,38.4
2019-02-26T20:21:18.827Z,39.5
2019-02-26T20:24:16.589Z,39.5
2019-02-26T20:27:21.906Z,38.7
2019-02-26T20:30:15.435Z,39.3
2019-02-26T20:33:15.852Z,39.8
2019-02-26T20:36:17.749Z,40.3
2019-02-26T20:39:15.350Z,41.0
2019-02-26T20:42:20.935Z,40.7
2019-02-26T20:45:17.697Z,41.6
2019-02-26T20:48:15.243Z,41.2
2019-02-26T20:51:18.716Z,40.9
2019-02-26T20:54:15.591Z,41.0
2019-02-26T20:57:15.029Z,41.1
2019-02-26T21:00:15.727Z,41.0
2019-02-26T21:03:15.539Z,41.0
2019-02-26T21:06:15.640Z,44.4
2019-02-26T21:09:20.658Z,42.1
2019-02-26T21:12:15.801Z,41.9
2019-02-26T21:15:15.991Z,41.3
2019-02-26T21:18:15.699Z,41.8
2019-02-26T21:21:15.674Z,41.7
2019-02-26T21:24:15.653Z,42.0
2019-02-26T21:27:15.592Z,42.3
2019-02-26T21:30:15.008Z,42.8
2019-02-26T21:33:15.491Z,43.4
2019-02-26T21:36:15.563Z,42.9
2019-02-26T21:39:15.063Z,42.7
2019-02-26T21:42:15.599Z,43.1
2019-02-26T21:45:16.151Z,43.6
2019-02-26T21:48:15.692Z,44.3
2019-02-26T21:51:15.133Z,45.5
2019-02-26T21:54:15.443Z,45.2
2019-02-26T21:57:15.866Z,46.5
2019-02-26T22:00:15.193Z,47.0
2019-02-26T22:03:15.911Z,46.2
2019-02-26T22:06:15.338Z,46.0
2019-02-26T22:09:15.704Z,45.9
2019-02-26T22:12:15.024Z,46.2
2019-02-26T22:15:15.443Z,45.1
2019-02-26T22:18:15.519Z,46.3
2019-02-26T22:21:18.905Z,47.8
2019-02-26T22:24:15.571Z,46.3
2019-02-26T22:27:15.385Z,46.1
2019-02-26T22:30:15.897Z,48.3
2019-02-26T22:33:15.378Z,47.0
2019-02-26T22:36:14.869Z,48.0
2019-02-26T22:39:15.447Z,46.2
2019-02-26T22:42:15.022Z,47.0
2019-02-26T22:45:15.334Z,45.4
2019-02-26T22:48:15.822Z,45.9
2019-02-26T22:51:15.309Z,45.7
2019-02-26T22:54:15.324Z,44.9
2019-02-26T22:57:15.691Z,45.7
2019-02-26T23:00:15.962Z,46.0
2019-02-26T23:03:15.113Z,46.4
2019-02-26T23:06:15.515Z,45.9
2019-02-26T23:09:17.601Z,46.4
2019-02-26T23:12:15.380Z,47.1
2019-02-26T23:15:15.080Z,46.2
2019-02-26T23:18:15.642Z,45.9
2019-02-26T23:21:15.641Z,47.6
2019-02-26T23:24:14.917Z,46.7
2019-02-26T23:27:15.706Z,47.5
2019-02-26T23:30:15.427Z,46.8
2019-02-26T23:33:15.767Z,48.0
2019-02-26T23:36:15.227Z,49.0
2019-02-26T23:39:15.028Z,49.3
2019-02-26T23:42:15.333Z,48.1
2019-02-26T23:45:14.993Z,49.0
2019-02-26T23:48:15.677Z,49.3
2019-02-26T23:51:20.242Z,49.1
2019-02-26T23:54:15.556Z,49.2
2019-02-26T23:57:15.436Z,49.3
